sensor_id;sensor_type;location;lat;lon;timestamp;P1;durP1;ratioP1;P2;durP2;ratioP2
15486;SDS011;7845;53.698;10.078;2024-01-06T00:02:01;3.00;;;3.00;;
15486;SDS011;7845;53.698;10.078;2024-01-06T00:04:27;3.00;;;1.50;;
15486;SDS011;7845;53.698;10.078;2024-01-06T00:06:52;3.75;;;3.75;;
15486;SDS011;7845;53.698;10.078;2024-01-06T00:09:17;6.00;;;4.00;;
15486;SDS011;7845;53.698;10.078;2024-01-06T00:11:43;3.50;;;3.50;;
15486;SDS011;7845;53.698;10.078;2024-01-06T00:14:08;6.25;;;3.25;;
15486;SDS011;7845;53.698;10.078;2024-01-06T00:16:34;4.50;;;3.25;;
15486;SDS011;7845;53.698;10.078;2024-01-06T00:18:59;7.00;;;6.00;;
15486;SDS011;7845;53.698;10.078;2024-01-06T00:21:25;5.50;;;3.75;;
15486;SDS011;7845;53.698;10.078;2024-01-06T00:23:54;6.50;;;4.00;;
15486;SDS011;7845;53.698;10.078;2024-01-06T00:26:21;6.75;;;5.00;;
15486;SDS011;7845;53.698;10.078;2024-01-06T00:28:46;5.00;;;4.00;;
15486;SDS011;7845;53.698;10.078;2024-01-06T00:31:16;5.50;;;3.75;;
15486;SDS011;7845;53.698;10.078;2024-01-06T00:33:42;0.25;;;0.25;;
15486;SDS011;7845;53.698;10.078;2024-01-06T00:36:11;6.50;;;5.00;;
15486;SDS011;7845;53.698;10.078;2024-01-06T00:38:37;6.00;;;4.50;;
15486;SDS011;7845;53.698;10.078;2024-01-06T00:41:02;4.50;;;4.50;;
15486;SDS011;7845;53.698;10.078;2024-01-06T00:43:31;3.00;;;2.50;;
15486;SDS011;7845;53.698;10.078;2024-01-06T00:45:56;3.50;;;3.25;;
15486;SDS011;7845;53.698;10.078;2024-01-06T00:48:24;4.50;;;4.50;;
15486;SDS011;7845;53.698;10.078;2024-01-06T00:50:49;4.00;;;4.00;;
15486;SDS011;7845;53.698;10.078;2024-01-06T00:53:17;1.00;;;1.00;;
15486;SDS011;7845;53.698;10.078;2024-01-06T00:55:42;3.00;;;2.50;;
15486;SDS011;7845;53.698;10.078;2024-01-06T00:58:08;4.00;;;4.00;;
15486;SDS011;7845;53.698;10.078;2024-01-06T01:00:36;5.75;;;5.75;;
15486;SDS011;7845;53.698;10.078;2024-01-06T01:03:02;3.75;;;3.00;;
15486;SDS011;7845;53.698;10.078;2024-01-06T01:05:27;5.50;;;5.50;;
15486;SDS011;7845;53.698;10.078;2024-01-06T01:07:52;3.00;;;3.00;;
15486;SDS011;7845;53.698;10.078;2024-01-06T01:10:18;1.50;;;1.50;;
15486;SDS011;7845;53.698;10.078;2024-01-06T01:12:43;2.00;;;1.50;;
15486;SDS011;7845;53.698;10.078;2024-01-06T01:15:08;3.25;;;3.25;;
15486;SDS011;7845;53.698;10.078;2024-01-06T01:17:43;6.00;;;6.00;;
15486;SDS011;7845;53.698;10.078;2024-01-06T01:20:09;5.50;;;3.75;;
15486;SDS011;7845;53.698;10.078;2024-01-06T01:22:37;4.00;;;3.00;;
15486;SDS011;7845;53.698;10.078;2024-01-06T01:25:09;3.00;;;3.00;;
15486;SDS011;7845;53.698;10.078;2024-01-06T01:27:34;6.00;;;4.00;;
15486;SDS011;7845;53.698;10.078;2024-01-06T01:30:00;4.00;;;4.00;;
15486;SDS011;7845;53.698;10.078;2024-01-06T01:32:31;6.00;;;4.00;;
15486;SDS011;7845;53.698;10.078;2024-01-06T01:34:56;6.00;;;6.00;;
15486;SDS011;7845;53.698;10.078;2024-01-06T01:37:22;4.00;;;4.00;;
15486;SDS011;7845;53.698;10.078;2024-01-06T01:39:48;3.50;;;3.50;;
15486;SDS011;7845;53.698;10.078;2024-01-06T01:42:16;7.50;;;7.00;;
15486;SDS011;7845;53.698;10.078;2024-01-06T01:44:41;5.50;;;4.50;;
15486;SDS011;7845;53.698;10.078;2024-01-06T01:47:06;3.75;;;3.75;;
15486;SDS011;7845;53.698;10.078;2024-01-06T01:49:32;5.00;;;4.00;;
15486;SDS011;7845;53.698;10.078;2024-01-06T01:51:58;5.50;;;5.50;;
15486;SDS011;7845;53.698;10.078;2024-01-06T01:54:24;6.25;;;5.50;;
15486;SDS011;7845;53.698;10.078;2024-01-06T01:56:52;6.00;;;4.00;;
15486;SDS011;7845;53.698;10.078;2024-01-06T01:59:21;6.00;;;4.00;;
15486;SDS011;7845;53.698;10.078;2024-01-06T02:01:47;4.50;;;4.00;;
15486;SDS011;7845;53.698;10.078;2024-01-06T02:04:12;4.50;;;4.50;;
15486;SDS011;7845;53.698;10.078;2024-01-06T02:06:38;6.50;;;5.50;;
15486;SDS011;7845;53.698;10.078;2024-01-06T02:09:03;6.00;;;6.00;;
15486;SDS011;7845;53.698;10.078;2024-01-06T02:11:32;4.00;;;4.00;;
15486;SDS011;7845;53.698;10.078;2024-01-06T02:13:57;5.50;;;5.50;;
15486;SDS011;7845;53.698;10.078;2024-01-06T02:16:22;5.00;;;5.00;;
15486;SDS011;7845;53.698;10.078;2024-01-06T02:18:50;7.00;;;6.50;;
15486;SDS011;7845;53.698;10.078;2024-01-06T02:21:16;6.50;;;6.50;;
15486;SDS011;7845;53.698;10.078;2024-01-06T02:23:43;7.00;;;6.00;;
15486;SDS011;7845;53.698;10.078;2024-01-06T02:26:09;5.25;;;4.00;;
15486;SDS011;7845;53.698;10.078;2024-01-06T02:28:41;9.75;;;7.50;;
15486;SDS011;7845;53.698;10.078;2024-01-06T02:31:06;5.75;;;5.75;;
15486;SDS011;7845;53.698;10.078;2024-01-06T02:33:31;6.25;;;6.25;;
15486;SDS011;7845;53.698;10.078;2024-01-06T02:35:57;7.00;;;7.00;;
15486;SDS011;7845;53.698;10.078;2024-01-06T02:38:28;7.00;;;7.00;;
15486;SDS011;7845;53.698;10.078;2024-01-06T02:40:53;8.00;;;6.75;;
15486;SDS011;7845;53.698;10.078;2024-01-06T02:43:18;7.50;;;7.00;;
15486;SDS011;7845;53.698;10.078;2024-01-06T02:45:44;6.25;;;6.00;;
15486;SDS011;7845;53.698;10.078;2024-01-06T02:48:12;12.50;;;9.00;;
15486;SDS011;7845;53.698;10.078;2024-01-06T02:50:37;3.00;;;3.00;;
15486;SDS011;7845;53.698;10.078;2024-01-06T02:53:03;5.00;;;5.00;;
15486;SDS011;7845;53.698;10.078;2024-01-06T02:55:28;6.00;;;4.00;;
15486;SDS011;7845;53.698;10.078;2024-01-06T02:57:53;8.00;;;8.00;;
15486;SDS011;7845;53.698;10.078;2024-01-06T03:00:22;6.00;;;4.00;;
15486;SDS011;7845;53.698;10.078;2024-01-06T03:02:50;6.25;;;6.25;;
15486;SDS011;7845;53.698;10.078;2024-01-06T03:05:15;7.00;;;6.75;;
15486;SDS011;7845;53.698;10.078;2024-01-06T03:07:42;8.50;;;6.50;;
15486;SDS011;7845;53.698;10.078;2024-01-06T03:10:16;6.25;;;6.00;;
15486;SDS011;7845;53.698;10.078;2024-01-06T03:12:45;8.50;;;8.50;;
15486;SDS011;7845;53.698;10.078;2024-01-06T03:15:11;7.00;;;7.00;;
15486;SDS011;7845;53.698;10.078;2024-01-06T03:17:36;6.75;;;6.00;;
15486;SDS011;7845;53.698;10.078;2024-01-06T03:20:01;4.00;;;4.00;;
15486;SDS011;7845;53.698;10.078;2024-01-06T03:22:28;4.00;;;3.75;;
15486;SDS011;7845;53.698;10.078;2024-01-06T03:24:54;5.50;;;5.50;;
15486;SDS011;7845;53.698;10.078;2024-01-06T03:27:19;5.00;;;5.00;;
15486;SDS011;7845;53.698;10.078;2024-01-06T03:29:44;6.75;;;6.00;;
15486;SDS011;7845;53.698;10.078;2024-01-06T03:32:10;8.00;;;7.50;;
15486;SDS011;7845;53.698;10.078;2024-01-06T03:34:35;7.00;;;7.00;;
15486;SDS011;7845;53.698;10.078;2024-01-06T03:37:00;6.00;;;6.00;;
15486;SDS011;7845;53.698;10.078;2024-01-06T03:39:26;3.75;;;3.75;;
15486;SDS011;7845;53.698;10.078;2024-01-06T03:41:51;5.50;;;5.50;;
15486;SDS011;7845;53.698;10.078;2024-01-06T03:44:16;7.00;;;6.75;;
15486;SDS011;7845;53.698;10.078;2024-01-06T03:46:41;4.00;;;3.50;;
15486;SDS011;7845;53.698;10.078;2024-01-06T03:49:07;8.50;;;8.50;;
15486;SDS011;7845;53.698;10.078;2024-01-06T03:51:32;6.25;;;6.25;;
15486;SDS011;7845;53.698;10.078;2024-01-06T03:53:57;4.50;;;4.50;;
15486;SDS011;7845;53.698;10.078;2024-01-06T03:56:22;6.00;;;5.50;;
15486;SDS011;7845;53.698;10.078;2024-01-06T03:58:48;2.00;;;1.00;;
15486;SDS011;7845;53.698;10.078;2024-01-06T04:01:13;11.75;;;7.50;;
15486;SDS011;7845;53.698;10.078;2024-01-06T04:03:38;3.00;;;3.00;;
15486;SDS011;7845;53.698;10.078;2024-01-06T04:06:07;5.50;;;5.50;;
15486;SDS011;7845;53.698;10.078;2024-01-06T04:08:32;7.00;;;6.75;;
15486;SDS011;7845;53.698;10.078;2024-01-06T04:10:57;5.00;;;3.50;;
15486;SDS011;7845;53.698;10.078;2024-01-06T04:13:23;10.25;;;7.50;;
15486;SDS011;7845;53.698;10.078;2024-01-06T04:15:50;5.50;;;4.00;;
15486;SDS011;7845;53.698;10.078;2024-01-06T04:18:21;8.50;;;8.50;;
15486;SDS011;7845;53.698;10.078;2024-01-06T04:20:49;4.25;;;4.25;;
15486;SDS011;7845;53.698;10.078;2024-01-06T04:23:14;6.75;;;6.75;;
15486;SDS011;7845;53.698;10.078;2024-01-06T04:25:40;6.25;;;5.00;;
15486;SDS011;7845;53.698;10.078;2024-01-06T04:28:05;5.50;;;4.50;;
15486;SDS011;7845;53.698;10.078;2024-01-06T04:30:30;8.50;;;6.00;;
15486;SDS011;7845;53.698;10.078;2024-01-06T04:33:04;6.75;;;6.50;;
15486;SDS011;7845;53.698;10.078;2024-01-06T04:35:30;8.00;;;7.00;;
15486;SDS011;7845;53.698;10.078;2024-01-06T04:37:55;6.25;;;6.00;;
15486;SDS011;7845;53.698;10.078;2024-01-06T04:40:20;9.50;;;8.00;;
15486;SDS011;7845;53.698;10.078;2024-01-06T04:42:46;7.00;;;7.00;;
15486;SDS011;7845;53.698;10.078;2024-01-06T04:45:14;6.75;;;6.75;;
15486;SDS011;7845;53.698;10.078;2024-01-06T04:47:39;1.00;;;0.00;;
15486;SDS011;7845;53.698;10.078;2024-01-06T04:50:07;7.75;;;7.25;;
15486;SDS011;7845;53.698;10.078;2024-01-06T04:52:33;4.00;;;4.00;;
15486;SDS011;7845;53.698;10.078;2024-01-06T04:54:58;7.00;;;7.00;;
15486;SDS011;7845;53.698;10.078;2024-01-06T04:57:24;3.75;;;3.00;;
15486;SDS011;7845;53.698;10.078;2024-01-06T04:59:52;6.00;;;6.00;;
15486;SDS011;7845;53.698;10.078;2024-01-06T05:02:17;8.50;;;8.50;;
15486;SDS011;7845;53.698;10.078;2024-01-06T05:04:43;7.25;;;6.50;;
15486;SDS011;7845;53.698;10.078;2024-01-06T05:07:08;7.00;;;7.00;;
15486;SDS011;7845;53.698;10.078;2024-01-06T05:09:42;6.00;;;6.00;;
15486;SDS011;7845;53.698;10.078;2024-01-06T05:12:08;6.25;;;6.25;;
15486;SDS011;7845;53.698;10.078;2024-01-06T05:14:33;7.00;;;7.00;;
15486;SDS011;7845;53.698;10.078;2024-01-06T05:17:02;6.75;;;6.00;;
15486;SDS011;7845;53.698;10.078;2024-01-06T05:19:27;6.00;;;5.50;;
15486;SDS011;7845;53.698;10.078;2024-01-06T05:21:57;8.50;;;6.00;;
15486;SDS011;7845;53.698;10.078;2024-01-06T05:24:22;4.50;;;4.00;;
15486;SDS011;7845;53.698;10.078;2024-01-06T05:26:48;7.50;;;6.25;;
15486;SDS011;7845;53.698;10.078;2024-01-06T05:29:13;6.00;;;6.00;;
15486;SDS011;7845;53.698;10.078;2024-01-06T05:31:38;2.50;;;2.50;;
15486;SDS011;7845;53.698;10.078;2024-01-06T05:34:04;10.00;;;9.00;;
15486;SDS011;7845;53.698;10.078;2024-01-06T05:36:29;9.00;;;7.00;;
15486;SDS011;7845;53.698;10.078;2024-01-06T05:38:55;9.50;;;8.00;;
15486;SDS011;7845;53.698;10.078;2024-01-06T05:41:20;10.50;;;8.50;;
15486;SDS011;7845;53.698;10.078;2024-01-06T05:43:45;7.00;;;6.00;;
15486;SDS011;7845;53.698;10.078;2024-01-06T05:46:10;6.75;;;6.25;;
15486;SDS011;7845;53.698;10.078;2024-01-06T05:48:36;4.00;;;4.00;;
15486;SDS011;7845;53.698;10.078;2024-01-06T05:51:03;8.00;;;7.25;;
15486;SDS011;7845;53.698;10.078;2024-01-06T05:53:30;4.00;;;3.00;;
15486;SDS011;7845;53.698;10.078;2024-01-06T05:55:55;9.00;;;8.50;;
15486;SDS011;7845;53.698;10.078;2024-01-06T05:58:21;9.00;;;8.50;;
15486;SDS011;7845;53.698;10.078;2024-01-06T06:00:46;9.00;;;7.50;;
15486;SDS011;7845;53.698;10.078;2024-01-06T06:03:13;10.00;;;9.50;;
15486;SDS011;7845;53.698;10.078;2024-01-06T06:05:39;8.00;;;7.00;;
15486;SDS011;7845;53.698;10.078;2024-01-06T06:08:04;8.50;;;7.00;;
15486;SDS011;7845;53.698;10.078;2024-01-06T06:10:29;12.25;;;10.50;;
15486;SDS011;7845;53.698;10.078;2024-01-06T06:13:05;11.75;;;9.75;;
15486;SDS011;7845;53.698;10.078;2024-01-06T06:15:31;7.50;;;7.50;;
15486;SDS011;7845;53.698;10.078;2024-01-06T06:17:57;9.25;;;9.25;;
15486;SDS011;7845;53.698;10.078;2024-01-06T06:20:25;6.75;;;6.50;;
15486;SDS011;7845;53.698;10.078;2024-01-06T06:22:53;6.75;;;6.75;;
15486;SDS011;7845;53.698;10.078;2024-01-06T06:25:21;12.25;;;12.00;;
15486;SDS011;7845;53.698;10.078;2024-01-06T06:27:47;8.00;;;8.00;;
15486;SDS011;7845;53.698;10.078;2024-01-06T06:30:12;11.50;;;10.00;;
15486;SDS011;7845;53.698;10.078;2024-01-06T06:32:41;11.50;;;9.00;;
15486;SDS011;7845;53.698;10.078;2024-01-06T06:35:07;2.00;;;1.00;;
15486;SDS011;7845;53.698;10.078;2024-01-06T06:37:32;9.25;;;9.25;;
15486;SDS011;7845;53.698;10.078;2024-01-06T06:39:58;10.50;;;10.50;;
15486;SDS011;7845;53.698;10.078;2024-01-06T06:42:23;10.50;;;10.00;;
15486;SDS011;7845;53.698;10.078;2024-01-06T06:44:48;9.25;;;8.50;;
15486;SDS011;7845;53.698;10.078;2024-01-06T06:47:14;7.50;;;7.50;;
15486;SDS011;7845;53.698;10.078;2024-01-06T06:49:39;8.00;;;8.00;;
15486;SDS011;7845;53.698;10.078;2024-01-06T06:52:04;6.25;;;6.00;;
15486;SDS011;7845;53.698;10.078;2024-01-06T06:54:32;7.00;;;6.50;;
15486;SDS011;7845;53.698;10.078;2024-01-06T06:56:57;9.25;;;9.25;;
15486;SDS011;7845;53.698;10.078;2024-01-06T06:59:22;10.00;;;10.00;;
15486;SDS011;7845;53.698;10.078;2024-01-06T07:01:48;10.00;;;9.50;;
15486;SDS011;7845;53.698;10.078;2024-01-06T07:04:13;9.75;;;7.00;;
15486;SDS011;7845;53.698;10.078;2024-01-06T07:06:38;6.00;;;5.00;;
15486;SDS011;7845;53.698;10.078;2024-01-06T07:09:04;9.75;;;9.00;;
15486;SDS011;7845;53.698;10.078;2024-01-06T07:11:36;9.00;;;9.00;;
15486;SDS011;7845;53.698;10.078;2024-01-06T07:14:01;9.75;;;9.00;;
15486;SDS011;7845;53.698;10.078;2024-01-06T07:16:26;9.50;;;9.00;;
15486;SDS011;7845;53.698;10.078;2024-01-06T07:18:52;9.50;;;8.00;;
15486;SDS011;7845;53.698;10.078;2024-01-06T07:21:20;11.00;;;10.00;;
15486;SDS011;7845;53.698;10.078;2024-01-06T07:23:45;9.25;;;8.00;;
15486;SDS011;7845;53.698;10.078;2024-01-06T07:26:10;5.50;;;5.00;;
15486;SDS011;7845;53.698;10.078;2024-01-06T07:28:36;10.25;;;8.00;;
15486;SDS011;7845;53.698;10.078;2024-01-06T07:31:01;10.00;;;9.75;;
15486;SDS011;7845;53.698;10.078;2024-01-06T07:33:27;9.25;;;7.00;;
15486;SDS011;7845;53.698;10.078;2024-01-06T07:35:52;9.50;;;7.00;;
15486;SDS011;7845;53.698;10.078;2024-01-06T07:38:17;10.25;;;8.25;;
15486;SDS011;7845;53.698;10.078;2024-01-06T07:40:45;6.75;;;6.50;;
15486;SDS011;7845;53.698;10.078;2024-01-06T07:43:17;9.50;;;8.75;;
15486;SDS011;7845;53.698;10.078;2024-01-06T07:45:45;9.25;;;7.50;;
15486;SDS011;7845;53.698;10.078;2024-01-06T07:48:10;6.00;;;5.00;;
15486;SDS011;7845;53.698;10.078;2024-01-06T07:50:36;10.25;;;9.75;;
15486;SDS011;7845;53.698;10.078;2024-01-06T07:53:01;11.00;;;9.25;;
15486;SDS011;7845;53.698;10.078;2024-01-06T07:55:26;5.50;;;5.50;;
15486;SDS011;7845;53.698;10.078;2024-01-06T07:57:53;5.50;;;5.00;;
15486;SDS011;7845;53.698;10.078;2024-01-06T08:00:19;9.25;;;9.25;;
15486;SDS011;7845;53.698;10.078;2024-01-06T08:02:44;9.00;;;9.00;;
15486;SDS011;7845;53.698;10.078;2024-01-06T08:05:10;9.00;;;7.00;;
15486;SDS011;7845;53.698;10.078;2024-01-06T08:07:35;6.25;;;6.00;;
15486;SDS011;7845;53.698;10.078;2024-01-06T08:10:00;7.00;;;6.00;;
15486;SDS011;7845;53.698;10.078;2024-01-06T08:12:32;9.00;;;8.50;;
15486;SDS011;7845;53.698;10.078;2024-01-06T08:15:05;6.00;;;4.50;;
15486;SDS011;7845;53.698;10.078;2024-01-06T08:17:32;8.50;;;7.50;;
15486;SDS011;7845;53.698;10.078;2024-01-06T08:19:57;14.00;;;11.00;;
15486;SDS011;7845;53.698;10.078;2024-01-06T08:22:23;9.50;;;8.50;;
15486;SDS011;7845;53.698;10.078;2024-01-06T08:24:48;14.00;;;13.00;;
15486;SDS011;7845;53.698;10.078;2024-01-06T08:27:13;10.00;;;10.00;;
15486;SDS011;7845;53.698;10.078;2024-01-06T08:29:38;9.00;;;9.00;;
15486;SDS011;7845;53.698;10.078;2024-01-06T08:32:07;3.75;;;3.00;;
15486;SDS011;7845;53.698;10.078;2024-01-06T08:34:32;9.75;;;9.00;;
15486;SDS011;7845;53.698;10.078;2024-01-06T08:36:57;4.75;;;4.25;;
15486;SDS011;7845;53.698;10.078;2024-01-06T08:39:23;7.00;;;7.00;;
15486;SDS011;7845;53.698;10.078;2024-01-06T08:41:49;7.50;;;7.50;;
15486;SDS011;7845;53.698;10.078;2024-01-06T08:44:14;9.00;;;7.00;;
15486;SDS011;7845;53.698;10.078;2024-01-06T08:46:43;11.75;;;11.50;;
15486;SDS011;7845;53.698;10.078;2024-01-06T08:49:11;8.00;;;7.00;;
15486;SDS011;7845;53.698;10.078;2024-01-06T08:51:36;11.50;;;10.25;;
15486;SDS011;7845;53.698;10.078;2024-01-06T08:54:01;10.00;;;9.00;;
15486;SDS011;7845;53.698;10.078;2024-01-06T08:56:30;12.25;;;10.25;;
15486;SDS011;7845;53.698;10.078;2024-01-06T08:58:55;12.00;;;10.50;;
15486;SDS011;7845;53.698;10.078;2024-01-06T09:01:22;11.00;;;11.00;;
15486;SDS011;7845;53.698;10.078;2024-01-06T09:03:47;10.00;;;7.50;;
15486;SDS011;7845;53.698;10.078;2024-01-06T09:06:13;12.25;;;12.25;;
15486;SDS011;7845;53.698;10.078;2024-01-06T09:08:39;9.25;;;6.75;;
15486;SDS011;7845;53.698;10.078;2024-01-06T09:11:04;9.00;;;9.00;;
15486;SDS011;7845;53.698;10.078;2024-01-06T09:13:29;11.50;;;9.75;;
15486;SDS011;7845;53.698;10.078;2024-01-06T09:15:54;9.75;;;9.25;;
15486;SDS011;7845;53.698;10.078;2024-01-06T09:18:20;10.00;;;10.00;;
15486;SDS011;7845;53.698;10.078;2024-01-06T09:20:45;4.00;;;3.00;;
15486;SDS011;7845;53.698;10.078;2024-01-06T09:23:13;6.25;;;4.50;;
15486;SDS011;7845;53.698;10.078;2024-01-06T09:25:39;7.00;;;7.00;;
15486;SDS011;7845;53.698;10.078;2024-01-06T09:28:08;9.00;;;9.00;;
15486;SDS011;7845;53.698;10.078;2024-01-06T09:30:33;9.00;;;8.50;;
15486;SDS011;7845;53.698;10.078;2024-01-06T09:32:59;9.75;;;7.25;;
15486;SDS011;7845;53.698;10.078;2024-01-06T09:35:24;9.25;;;9.00;;
15486;SDS011;7845;53.698;10.078;2024-01-06T09:37:49;8.00;;;7.50;;
15486;SDS011;7845;53.698;10.078;2024-01-06T09:40:16;10.25;;;7.75;;
15486;SDS011;7845;53.698;10.078;2024-01-06T09:42:49;11.00;;;9.50;;
15486;SDS011;7845;53.698;10.078;2024-01-06T09:45:15;7.75;;;7.75;;
15486;SDS011;7845;53.698;10.078;2024-01-06T09:47:40;8.25;;;8.25;;
15486;SDS011;7845;53.698;10.078;2024-01-06T09:50:06;8.00;;;8.00;;
15486;SDS011;7845;53.698;10.078;2024-01-06T09:52:34;12.00;;;9.25;;
15486;SDS011;7845;53.698;10.078;2024-01-06T09:55:06;9.75;;;9.25;;
15486;SDS011;7845;53.698;10.078;2024-01-06T09:57:36;11.50;;;7.00;;
15486;SDS011;7845;53.698;10.078;2024-01-06T10:00:02;6.75;;;6.50;;
15486;SDS011;7845;53.698;10.078;2024-01-06T10:02:29;10.00;;;9.75;;
15486;SDS011;7845;53.698;10.078;2024-01-06T10:04:56;8.00;;;7.00;;
15486;SDS011;7845;53.698;10.078;2024-01-06T10:07:22;9.25;;;6.75;;
15486;SDS011;7845;53.698;10.078;2024-01-06T10:09:47;11.00;;;10.25;;
15486;SDS011;7845;53.698;10.078;2024-01-06T10:12:13;9.50;;;9.50;;
15486;SDS011;7845;53.698;10.078;2024-01-06T10:14:41;11.50;;;11.50;;
15486;SDS011;7845;53.698;10.078;2024-01-06T10:17:06;8.00;;;8.00;;
15486;SDS011;7845;53.698;10.078;2024-01-06T10:19:35;9.75;;;8.00;;
15486;SDS011;7845;53.698;10.078;2024-01-06T10:22:03;9.00;;;8.00;;
15486;SDS011;7845;53.698;10.078;2024-01-06T10:24:36;6.50;;;6.00;;
15486;SDS011;7845;53.698;10.078;2024-01-06T10:27:03;7.00;;;5.50;;
15486;SDS011;7845;53.698;10.078;2024-01-06T10:29:33;8.50;;;7.00;;
15486;SDS011;7845;53.698;10.078;2024-01-06T10:31:59;12.00;;;9.00;;
15486;SDS011;7845;53.698;10.078;2024-01-06T10:34:25;10.75;;;10.75;;
15486;SDS011;7845;53.698;10.078;2024-01-06T10:36:51;10.50;;;9.25;;
15486;SDS011;7845;53.698;10.078;2024-01-06T10:39:19;15.75;;;14.00;;
15486;SDS011;7845;53.698;10.078;2024-01-06T10:41:46;6.00;;;6.00;;
15486;SDS011;7845;53.698;10.078;2024-01-06T10:44:16;7.00;;;7.00;;
15486;SDS011;7845;53.698;10.078;2024-01-06T10:46:42;10.75;;;8.50;;
15486;SDS011;7845;53.698;10.078;2024-01-06T10:49:12;8.50;;;8.50;;
15486;SDS011;7845;53.698;10.078;2024-01-06T10:51:43;7.00;;;6.50;;
15486;SDS011;7845;53.698;10.078;2024-01-06T10:54:10;6.75;;;4.00;;
15486;SDS011;7845;53.698;10.078;2024-01-06T10:56:41;8.50;;;8.50;;
15486;SDS011;7845;53.698;10.078;2024-01-06T10:59:08;6.00;;;4.50;;
15486;SDS011;7845;53.698;10.078;2024-01-06T11:01:33;9.00;;;6.00;;
15486;SDS011;7845;53.698;10.078;2024-01-06T11:04:00;5.50;;;5.50;;
15486;SDS011;7845;53.698;10.078;2024-01-06T11:06:31;6.25;;;5.50;;
15486;SDS011;7845;53.698;10.078;2024-01-06T11:09:08;3.75;;;3.25;;
15486;SDS011;7845;53.698;10.078;2024-01-06T11:11:52;3.50;;;3.00;;
15486;SDS011;7845;53.698;10.078;2024-01-06T11:14:22;6.25;;;6.25;;
15486;SDS011;7845;53.698;10.078;2024-01-06T11:16:59;4.50;;;4.50;;
15486;SDS011;7845;53.698;10.078;2024-01-06T11:24:54;4.00;;;3.75;;
15486;SDS011;7845;53.698;10.078;2024-01-06T11:27:24;6.75;;;6.50;;
15486;SDS011;7845;53.698;10.078;2024-01-06T11:29:54;4.25;;;4.25;;
15486;SDS011;7845;53.698;10.078;2024-01-06T11:34:54;3.75;;;3.75;;
15486;SDS011;7845;53.698;10.078;2024-01-06T11:37:25;3.00;;;2.00;;
15486;SDS011;7845;53.698;10.078;2024-01-06T11:40:03;6.00;;;4.00;;
15486;SDS011;7845;53.698;10.078;2024-01-06T11:42:33;3.00;;;2.00;;
15486;SDS011;7845;53.698;10.078;2024-01-06T11:45:04;3.50;;;3.00;;
15486;SDS011;7845;53.698;10.078;2024-01-06T11:47:33;6.00;;;4.00;;
15486;SDS011;7845;53.698;10.078;2024-01-06T11:49:59;4.00;;;4.00;;
15486;SDS011;7845;53.698;10.078;2024-01-06T11:52:25;4.00;;;3.75;;
15486;SDS011;7845;53.698;10.078;2024-01-06T11:54:52;2.50;;;1.00;;
15486;SDS011;7845;53.698;10.078;2024-01-06T11:57:20;5.50;;;4.00;;
15486;SDS011;7845;53.698;10.078;2024-01-06T11:59:46;3.75;;;3.50;;
15486;SDS011;7845;53.698;10.078;2024-01-06T12:02:12;3.00;;;3.00;;
15486;SDS011;7845;53.698;10.078;2024-01-06T12:04:38;2.00;;;2.00;;
15486;SDS011;7845;53.698;10.078;2024-01-06T12:07:06;3.00;;;3.00;;
15486;SDS011;7845;53.698;10.078;2024-01-06T12:09:32;5.00;;;4.00;;
15486;SDS011;7845;53.698;10.078;2024-01-06T12:12:01;1.00;;;1.00;;
15486;SDS011;7845;53.698;10.078;2024-01-06T12:14:27;3.25;;;3.00;;
15486;SDS011;7845;53.698;10.078;2024-01-06T12:16:53;1.00;;;1.00;;
15486;SDS011;7845;53.698;10.078;2024-01-06T12:19:20;2.00;;;2.00;;
15486;SDS011;7845;53.698;10.078;2024-01-06T12:21:45;4.00;;;2.50;;
15486;SDS011;7845;53.698;10.078;2024-01-06T12:24:12;3.00;;;3.00;;
15486;SDS011;7845;53.698;10.078;2024-01-06T12:26:46;1.00;;;1.00;;
15486;SDS011;7845;53.698;10.078;2024-01-06T12:29:12;2.00;;;1.50;;
15486;SDS011;7845;53.698;10.078;2024-01-06T12:31:38;2.00;;;1.50;;
15486;SDS011;7845;53.698;10.078;2024-01-06T12:34:08;3.00;;;2.00;;
15486;SDS011;7845;53.698;10.078;2024-01-06T12:36:34;1.00;;;1.00;;
15486;SDS011;7845;53.698;10.078;2024-01-06T12:39:01;3.00;;;2.00;;
15486;SDS011;7845;53.698;10.078;2024-01-06T12:41:28;3.00;;;2.50;;
15486;SDS011;7845;53.698;10.078;2024-01-06T12:43:53;0.25;;;0.00;;
15486;SDS011;7845;53.698;10.078;2024-01-06T12:46:19;3.00;;;3.00;;
15486;SDS011;7845;53.698;10.078;2024-01-06T12:48:44;1.50;;;1.00;;
15486;SDS011;7845;53.698;10.078;2024-01-06T12:51:13;0.75;;;0.75;;
15486;SDS011;7845;53.698;10.078;2024-01-06T12:53:45;3.00;;;3.00;;
15486;SDS011;7845;53.698;10.078;2024-01-06T12:56:13;4.00;;;3.00;;
15486;SDS011;7845;53.698;10.078;2024-01-06T12:58:40;0.50;;;0.25;;
15486;SDS011;7845;53.698;10.078;2024-01-06T13:01:09;3.00;;;1.00;;
15486;SDS011;7845;53.698;10.078;2024-01-06T13:03:35;2.00;;;2.00;;
15486;SDS011;7845;53.698;10.078;2024-01-06T13:06:00;3.25;;;3.00;;
15486;SDS011;7845;53.698;10.078;2024-01-06T13:08:26;1.00;;;1.00;;
15486;SDS011;7845;53.698;10.078;2024-01-06T13:10:52;4.50;;;4.00;;
15486;SDS011;7845;53.698;10.078;2024-01-06T13:13:18;3.00;;;3.00;;
15486;SDS011;7845;53.698;10.078;2024-01-06T13:15:43;2.50;;;1.00;;
15486;SDS011;7845;53.698;10.078;2024-01-06T13:18:13;3.00;;;2.00;;
15486;SDS011;7845;53.698;10.078;2024-01-06T13:20:39;3.75;;;2.00;;
15486;SDS011;7845;53.698;10.078;2024-01-06T13:23:07;4.25;;;2.50;;
15486;SDS011;7845;53.698;10.078;2024-01-06T13:25:33;2.00;;;1.00;;
15486;SDS011;7845;53.698;10.078;2024-01-06T13:27:59;1.00;;;1.00;;
15486;SDS011;7845;53.698;10.078;2024-01-06T13:30:25;4.00;;;3.75;;
15486;SDS011;7845;53.698;10.078;2024-01-06T13:32:59;3.00;;;3.00;;
15486;SDS011;7845;53.698;10.078;2024-01-06T13:35:25;3.25;;;3.00;;
15486;SDS011;7845;53.698;10.078;2024-01-06T13:37:54;1.50;;;1.50;;
15486;SDS011;7845;53.698;10.078;2024-01-06T13:40:23;1.00;;;1.00;;
15486;SDS011;7845;53.698;10.078;2024-01-06T13:42:52;3.25;;;3.25;;
15486;SDS011;7845;53.698;10.078;2024-01-06T13:45:18;3.75;;;3.75;;
15486;SDS011;7845;53.698;10.078;2024-01-06T13:47:44;3.00;;;1.00;;
15486;SDS011;7845;53.698;10.078;2024-01-06T13:50:13;1.00;;;1.00;;
15486;SDS011;7845;53.698;10.078;2024-01-06T13:52:43;4.00;;;3.50;;
15486;SDS011;7845;53.698;10.078;2024-01-06T13:55:10;2.75;;;2.00;;
15486;SDS011;7845;53.698;10.078;2024-01-06T13:57:39;3.00;;;3.00;;
15486;SDS011;7845;53.698;10.078;2024-01-06T14:00:07;0.75;;;0.00;;
15486;SDS011;7845;53.698;10.078;2024-01-06T14:02:33;5.75;;;4.50;;
15486;SDS011;7845;53.698;10.078;2024-01-06T14:04:59;3.00;;;2.00;;
15486;SDS011;7845;53.698;10.078;2024-01-06T14:07:24;6.00;;;4.00;;
15486;SDS011;7845;53.698;10.078;2024-01-06T14:09:52;8.00;;;4.00;;
15486;SDS011;7845;53.698;10.078;2024-01-06T14:12:18;4.00;;;4.00;;
15486;SDS011;7845;53.698;10.078;2024-01-06T14:14:44;6.00;;;6.00;;
15486;SDS011;7845;53.698;10.078;2024-01-06T14:17:12;1.50;;;1.00;;
15486;SDS011;7845;53.698;10.078;2024-01-06T14:19:37;3.75;;;3.75;;
15486;SDS011;7845;53.698;10.078;2024-01-06T14:22:02;4.50;;;4.50;;
15486;SDS011;7845;53.698;10.078;2024-01-06T14:24:31;4.00;;;3.50;;
15486;SDS011;7845;53.698;10.078;2024-01-06T14:26:56;3.00;;;3.00;;
15486;SDS011;7845;53.698;10.078;2024-01-06T14:29:24;3.50;;;3.50;;
15486;SDS011;7845;53.698;10.078;2024-01-06T14:31:50;4.50;;;3.50;;
15486;SDS011;7845;53.698;10.078;2024-01-06T14:34:15;2.50;;;2.50;;
15486;SDS011;7845;53.698;10.078;2024-01-06T14:36:43;3.50;;;3.50;;
15486;SDS011;7845;53.698;10.078;2024-01-06T14:39:13;7.00;;;7.00;;
15486;SDS011;7845;53.698;10.078;2024-01-06T14:41:42;4.50;;;3.75;;
15486;SDS011;7845;53.698;10.078;2024-01-06T14:44:07;4.50;;;4.00;;
15486;SDS011;7845;53.698;10.078;2024-01-06T14:46:33;6.75;;;6.00;;
15486;SDS011;7845;53.698;10.078;2024-01-06T14:49:00;4.50;;;4.25;;
15486;SDS011;7845;53.698;10.078;2024-01-06T14:51:26;3.00;;;3.00;;